sensor_id;sensor_type;location;lat;lon;timestamp;pressure;altitude;pressure_sealevel;temperature;humidity
56052;BME280;41919;42.648;23.384;2023-03-23T00:01:08;94469.22;;;6.20;100.00
56052;BME280;41919;42.648;23.384;2023-03-23T00:03:38;94448.84;;;5.94;100.00
56052;BME280;41919;42.648;23.384;2023-03-23T00:06:04;94542.97;;;6.71;100.00
56052;BME280;41919;42.648;23.384;2023-03-23T00:08:36;94494.75;;;6.46;100.00
56052;BME280;41919;42.648;23.384;2023-03-23T00:11:06;94497.59;;;6.52;100.00
56052;BME280;41919;42.648;23.384;2023-03-23T00:13:32;94483.63;;;6.67;100.00
56052;BME280;41919;42.648;23.384;2023-03-23T00:15:58;94537.94;;;7.14;100.00
56052;BME280;41919;42.648;23.384;2023-03-23T00:18:24;94537.53;;;7.17;100.00
56052;BME280;41919;42.648;23.384;2023-03-23T00:20:51;94494.13;;;6.96;100.00
56052;BME280;41919;42.648;23.384;2023-03-23T00:23:18;94485.28;;;6.90;100.00
56052;BME280;41919;42.648;23.384;2023-03-23T00:25:46;94480.59;;;7.00;100.00
56052;BME280;41919;42.648;23.384;2023-03-23T00:28:11;94562.38;;;7.56;100.00
56052;BME280;41919;42.648;23.384;2023-03-23T00:30:38;94557.88;;;7.50;100.00
56052;BME280;41919;42.648;23.384;2023-03-23T00:33:04;94575.25;;;7.42;100.00
56052;BME280;41919;42.648;23.384;2023-03-23T00:35:29;94534.16;;;7.16;100.00
56052;BME280;41919;42.648;23.384;2023-03-23T00:37:56;94561.66;;;7.25;100.00
56052;BME280;41919;42.648;23.384;2023-03-23T00:40:24;94496.16;;;6.79;100.00
56052;BME280;41919;42.648;23.384;2023-03-23T00:42:49;94578.94;;;7.33;100.00
56052;BME280;41919;42.648;23.384;2023-03-23T00:45:15;94576.16;;;7.35;100.00
56052;BME280;41919;42.648;23.384;2023-03-23T00:47:41;94518.81;;;6.70;100.00
56052;BME280;41919;42.648;23.384;2023-03-23T00:50:12;94514.59;;;6.39;100.00
56052;BME280;41919;42.648;23.384;2023-03-23T00:52:39;94578.50;;;6.40;100.00
56052;BME280;41919;42.648;23.384;2023-03-23T00:55:06;94542.59;;;5.91;100.00
56052;BME280;41919;42.648;23.384;2023-03-23T00:57:31;94363.66;;;4.54;100.00
56052;BME280;41919;42.648;23.384;2023-03-23T00:59:57;94500.44;;;5.28;100.00
56052;BME280;41919;42.648;23.384;2023-03-23T01:02:22;94583.88;;;5.78;100.00
56052;BME280;41919;42.648;23.384;2023-03-23T01:04:50;94580.28;;;5.56;100.00
56052;BME280;41919;42.648;23.384;2023-03-23T01:07:20;94589.97;;;5.62;100.00
56052;BME280;41919;42.648;23.384;2023-03-23T01:09:48;94593.53;;;5.61;100.00
56052;BME280;41919;42.648;23.384;2023-03-23T01:12:14;94512.63;;;5.19;100.00
56052;BME280;41919;42.648;23.384;2023-03-23T01:14:41;94532.88;;;5.47;100.00
56052;BME280;41919;42.648;23.384;2023-03-23T01:17:07;94585.69;;;5.92;100.00
56052;BME280;41919;42.648;23.384;2023-03-23T01:19:32;94564.16;;;5.92;100.00
56052;BME280;41919;42.648;23.384;2023-03-23T01:21:58;94576.09;;;6.01;100.00
56052;BME280;41919;42.648;23.384;2023-03-23T01:24:23;94569.88;;;6.10;100.00
56052;BME280;41919;42.648;23.384;2023-03-23T01:26:48;94492.06;;;5.87;100.00
56052;BME280;41919;42.648;23.384;2023-03-23T01:29:14;94532.25;;;6.29;100.00
56052;BME280;41919;42.648;23.384;2023-03-23T01:31:40;94566.00;;;6.74;100.00
56052;BME280;41919;42.648;23.384;2023-03-23T01:34:07;94560.72;;;6.82;100.00
56052;BME280;41919;42.648;23.384;2023-03-23T01:36:33;94551.94;;;6.83;100.00
56052;BME280;41919;42.648;23.384;2023-03-23T01:39:04;94551.13;;;6.97;100.00
56052;BME280;41919;42.648;23.384;2023-03-23T01:41:30;94493.09;;;6.75;100.00
56052;BME280;41919;42.648;23.384;2023-03-23T01:44:01;94550.34;;;7.18;100.00
56052;BME280;41919;42.648;23.384;2023-03-23T01:46:30;94479.28;;;6.90;100.00
56052;BME280;41919;42.648;23.384;2023-03-23T01:48:58;94551.88;;;7.49;100.00
56052;BME280;41919;42.648;23.384;2023-03-23T01:51:26;94499.78;;;7.21;100.00
56052;BME280;41919;42.648;23.384;2023-03-23T01:53:58;94494.94;;;7.33;100.00
56052;BME280;41919;42.648;23.384;2023-03-23T01:56:29;94526.50;;;7.51;100.00
56052;BME280;41919;42.648;23.384;2023-03-23T01:58:58;94543.16;;;7.57;100.00
56052;BME280;41919;42.648;23.384;2023-03-23T02:01:24;94522.38;;;7.57;100.00
56052;BME280;41919;42.648;23.384;2023-03-23T02:03:52;94469.00;;;7.18;100.00
56052;BME280;41919;42.648;23.384;2023-03-23T02:06:19;94528.06;;;7.67;100.00
56052;BME280;41919;42.648;23.384;2023-03-23T02:08:48;94540.34;;;7.73;100.00
56052;BME280;41919;42.648;23.384;2023-03-23T02:11:19;94460.44;;;7.24;100.00
56052;BME280;41919;42.648;23.384;2023-03-23T02:13:45;94544.03;;;7.85;100.00
56052;BME280;41919;42.648;23.384;2023-03-23T02:19:50;94546.66;;;7.64;99.32
56052;BME280;41919;42.648;23.384;2023-03-23T02:32:07;94496.50;;;6.61;100.00
56052;BME280;41919;42.648;23.384;2023-03-23T02:34:47;94529.53;;;6.82;100.00
56052;BME280;41919;42.648;23.384;2023-03-23T02:37:24;94500.69;;;6.77;100.00
56052;BME280;41919;42.648;23.384;2023-03-23T02:40:02;94509.22;;;6.85;100.00
56052;BME280;41919;42.648;23.384;2023-03-23T02:42:38;94550.00;;;7.21;100.00
56052;BME280;41919;42.648;23.384;2023-03-23T02:45:07;94530.59;;;7.02;100.00
56052;BME280;41919;42.648;23.384;2023-03-23T02:47:35;94533.94;;;6.96;100.00
56052;BME280;41919;42.648;23.384;2023-03-23T02:50:05;94487.53;;;6.63;100.00
56052;BME280;41919;42.648;23.384;2023-03-23T02:52:34;94447.66;;;6.20;100.00
56052;BME280;41919;42.648;23.384;2023-03-23T02:55:03;94557.13;;;6.83;100.00
56052;BME280;41919;42.648;23.384;2023-03-23T02:57:30;94574.16;;;6.85;100.00
56052;BME280;41919;42.648;23.384;2023-03-23T02:59:56;94556.06;;;6.62;100.00
56052;BME280;41919;42.648;23.384;2023-03-23T03:02:29;94502.13;;;6.05;100.00
56052;BME280;41919;42.648;23.384;2023-03-23T03:05:18;94589.09;;;6.54;100.00
56052;BME280;41919;42.648;23.384;2023-03-23T03:07:51;94502.69;;;5.92;100.00
56052;BME280;41919;42.648;23.384;2023-03-23T03:10:31;94603.31;;;6.43;100.00
56052;BME280;41919;42.648;23.384;2023-03-23T03:18:15;94602.50;;;5.50;100.00
56052;BME280;41919;42.648;23.384;2023-03-23T03:20:49;94515.78;;;4.75;100.00
56052;BME280;41919;42.648;23.384;2023-03-23T03:23:19;94585.13;;;4.96;100.00
56052;BME280;41919;42.648;23.384;2023-03-23T03:25:47;94587.94;;;4.78;100.00
56052;BME280;41919;42.648;23.384;2023-03-23T03:28:16;94531.00;;;4.22;100.00
56052;BME280;41919;42.648;23.384;2023-03-23T03:30:43;94610.38;;;4.38;100.00
56052;BME280;41919;42.648;23.384;2023-03-23T03:33:10;94576.59;;;3.99;100.00
56052;BME280;41919;42.648;23.384;2023-03-23T03:35:39;94519.72;;;3.33;100.00
56052;BME280;41919;42.648;23.384;2023-03-23T03:38:08;94527.13;;;3.20;100.00
56052;BME280;41919;42.648;23.384;2023-03-23T03:40:34;94546.69;;;3.22;100.00
56052;BME280;41919;42.648;23.384;2023-03-23T03:42:59;94525.03;;;3.23;100.00
56052;BME280;41919;42.648;23.384;2023-03-23T03:45:25;94551.06;;;3.38;100.00
56052;BME280;41919;42.648;23.384;2023-03-23T03:47:50;94593.91;;;3.82;100.00
56052;BME280;41919;42.648;23.384;2023-03-23T03:50:16;94601.66;;;3.98;100.00
56052;BME280;41919;42.648;23.384;2023-03-23T03:52:41;94519.25;;;3.62;100.00
56052;BME280;41919;42.648;23.384;2023-03-23T03:55:09;94556.09;;;3.81;100.00
56052;BME280;41919;42.648;23.384;2023-03-23T03:57:35;94594.53;;;4.00;100.00
56052;BME280;41919;42.648;23.384;2023-03-23T04:00:02;94552.38;;;3.83;100.00
56052;BME280;41919;42.648;23.384;2023-03-23T04:02:38;94541.06;;;3.84;100.00
56052;BME280;41919;42.648;23.384;2023-03-23T04:05:03;94596.31;;;4.32;100.00
56052;BME280;41919;42.648;23.384;2023-03-23T04:07:29;94594.03;;;4.29;100.00
56052;BME280;41919;42.648;23.384;2023-03-23T04:09:54;94581.91;;;4.38;100.00
56052;BME280;41919;42.648;23.384;2023-03-23T04:12:20;94604.34;;;4.62;100.00
56052;BME280;41919;42.648;23.384;2023-03-23T04:14:45;94584.63;;;4.53;100.00
56052;BME280;41919;42.648;23.384;2023-03-23T04:17:11;94590.41;;;4.63;100.00
56052;BME280;41919;42.648;23.384;2023-03-23T04:19:37;94576.69;;;4.55;100.00
56052;BME280;41919;42.648;23.384;2023-03-23T04:22:03;94594.00;;;4.46;100.00
56052;BME280;41919;42.648;23.384;2023-03-23T04:24:29;94516.19;;;3.91;100.00
56052;BME280;41919;42.648;23.384;2023-03-23T04:26:57;94486.94;;;3.75;100.00
56052;BME280;41919;42.648;23.384;2023-03-23T04:29:23;94528.91;;;4.18;100.00
56052;BME280;41919;42.648;23.384;2023-03-23T04:31:48;94514.94;;;4.35;100.00
56052;BME280;41919;42.648;23.384;2023-03-23T04:34:16;94590.63;;;5.01;100.00
56052;BME280;41919;42.648;23.384;2023-03-23T04:36:42;94553.13;;;4.89;100.00
56052;BME280;41919;42.648;23.384;2023-03-23T04:39:08;94510.88;;;4.88;100.00
56052;BME280;41919;42.648;23.384;2023-03-23T04:41:38;94595.34;;;5.60;100.00
56052;BME280;41919;42.648;23.384;2023-03-23T04:44:05;94583.75;;;5.71;100.00
56052;BME280;41919;42.648;23.384;2023-03-23T04:46:31;94538.09;;;5.62;100.00
56052;BME280;41919;42.648;23.384;2023-03-23T04:48:57;94597.34;;;6.19;100.00
56052;BME280;41919;42.648;23.384;2023-03-23T04:51:30;94605.91;;;6.43;100.00
56052;BME280;41919;42.648;23.384;2023-03-23T04:53:56;94599.28;;;6.55;100.00
56052;BME280;41919;42.648;23.384;2023-03-23T04:56:22;94616.50;;;6.71;100.00
56052;BME280;41919;42.648;23.384;2023-03-23T04:58:47;94479.66;;;5.97;100.00
56052;BME280;41919;42.648;23.384;2023-03-23T05:01:13;94603.78;;;6.76;100.00
56052;BME280;41919;42.648;23.384;2023-03-23T05:03:40;94412.69;;;5.63;100.00
56052;BME280;41919;42.648;23.384;2023-03-23T05:06:06;94612.13;;;7.01;100.00
56052;BME280;41919;42.648;23.384;2023-03-23T05:08:32;94592.06;;;6.95;100.00
56052;BME280;41919;42.648;23.384;2023-03-23T05:10:59;94561.78;;;6.73;100.00
56052;BME280;41919;42.648;23.384;2023-03-23T05:13:25;94623.50;;;7.00;100.00
56052;BME280;41919;42.648;23.384;2023-03-23T05:15:51;94565.66;;;6.62;100.00
56052;BME280;41919;42.648;23.384;2023-03-23T05:18:17;94516.56;;;6.37;100.00
56052;BME280;41919;42.648;23.384;2023-03-23T05:20:43;94607.94;;;7.00;100.00
56052;BME280;41919;42.648;23.384;2023-03-23T05:23:09;94630.19;;;7.24;100.00
56052;BME280;41919;42.648;23.384;2023-03-23T05:25:36;94618.09;;;7.32;100.00
56052;BME280;41919;42.648;23.384;2023-03-23T05:28:09;94617.38;;;7.38;100.00
56052;BME280;41919;42.648;23.384;2023-03-23T05:30:36;94595.72;;;7.31;100.00
56052;BME280;41919;42.648;23.384;2023-03-23T05:33:02;94626.31;;;7.50;100.00
56052;BME280;41919;42.648;23.384;2023-03-23T05:35:28;94565.69;;;7.13;100.00
56052;BME280;41919;42.648;23.384;2023-03-23T05:37:53;94638.47;;;7.64;100.00
56052;BME280;41919;42.648;23.384;2023-03-23T05:40:19;94575.44;;;7.26;100.00
56052;BME280;41919;42.648;23.384;2023-03-23T05:42:45;94655.03;;;7.78;100.00
56052;BME280;41919;42.648;23.384;2023-03-23T05:45:12;94645.13;;;7.67;100.00
56052;BME280;41919;42.648;23.384;2023-03-23T05:47:39;94590.06;;;7.27;100.00
56052;BME280;41919;42.648;23.384;2023-03-23T05:50:07;94595.97;;;7.57;100.00
56052;BME280;41919;42.648;23.384;2023-03-23T05:52:34;94640.03;;;7.80;100.00
56052;BME280;41919;42.648;23.384;2023-03-23T05:55:00;94589.31;;;7.33;100.00
56052;BME280;41919;42.648;23.384;2023-03-23T05:57:26;94575.38;;;7.19;100.00
56052;BME280;41919;42.648;23.384;2023-03-23T05:59:52;94667.81;;;7.73;100.00
56052;BME280;41919;42.648;23.384;2023-03-23T06:02:17;94577.06;;;7.27;100.00
56052;BME280;41919;42.648;23.384;2023-03-23T06:04:43;94584.28;;;7.68;100.00
56052;BME280;41919;42.648;23.384;2023-03-23T06:07:10;94670.00;;;8.77;100.00
56052;BME280;41919;42.648;23.384;2023-03-23T06:09:40;94639.56;;;9.13;100.00
56052;BME280;41919;42.648;23.384;2023-03-23T06:12:07;94628.47;;;9.04;100.00
56052;BME280;41919;42.648;23.384;2023-03-23T06:14:33;94658.94;;;9.38;100.00
56052;BME280;41919;42.648;23.384;2023-03-23T06:16:59;94676.16;;;9.74;100.00
56052;BME280;41919;42.648;23.384;2023-03-23T06:19:24;94663.25;;;10.34;100.00
56052;BME280;41919;42.648;23.384;2023-03-23T06:21:52;94581.44;;;10.14;85.89
56052;BME280;41919;42.648;23.384;2023-03-23T06:24:17;94604.41;;;10.32;85.29
56052;BME280;41919;42.648;23.384;2023-03-23T06:26:42;94603.56;;;10.58;83.13
56052;BME280;41919;42.648;23.384;2023-03-23T06:29:09;94669.84;;;11.24;78.90
56052;BME280;41919;42.648;23.384;2023-03-23T06:31:48;94667.19;;;11.44;78.41
56052;BME280;41919;42.648;23.384;2023-03-23T06:34:16;94662.13;;;11.62;80.90
56052;BME280;41919;42.648;23.384;2023-03-23T06:36:42;94598.59;;;11.80;77.40
56052;BME280;41919;42.648;23.384;2023-03-23T06:39:10;94667.28;;;13.03;71.35
56052;BME280;41919;42.648;23.384;2023-03-23T06:41:35;94609.06;;;12.69;68.75
56052;BME280;41919;42.648;23.384;2023-03-23T06:44:01;94622.94;;;13.75;67.55
56052;BME280;41919;42.648;23.384;2023-03-23T06:46:27;94670.03;;;15.50;59.68
56052;BME280;41919;42.648;23.384;2023-03-23T06:48:52;94615.56;;;16.54;56.08
56052;BME280;41919;42.648;23.384;2023-03-23T06:51:18;94667.09;;;16.90;51.68
56052;BME280;41919;42.648;23.384;2023-03-23T06:53:44;94624.16;;;18.22;49.51
56052;BME280;41919;42.648;23.384;2023-03-23T06:56:10;94670.28;;;20.34;42.93
56052;BME280;41919;42.648;23.384;2023-03-23T06:58:36;94627.63;;;20.97;37.87
56052;BME280;41919;42.648;23.384;2023-03-23T07:01:03;94617.09;;;21.83;36.02
56052;BME280;41919;42.648;23.384;2023-03-23T07:03:28;94661.03;;;23.14;34.50
56052;BME280;41919;42.648;23.384;2023-03-23T07:05:54;94616.94;;;23.75;33.14
56052;BME280;41919;42.648;23.384;2023-03-23T07:08:20;94665.84;;;24.38;31.60
56052;BME280;41919;42.648;23.384;2023-03-23T07:10:46;94608.63;;;24.63;31.50
56052;BME280;41919;42.648;23.384;2023-03-23T07:13:12;94667.34;;;25.67;29.70
56052;BME280;41919;42.648;23.384;2023-03-23T07:15:39;94603.50;;;23.37;32.22
56052;BME280;41919;42.648;23.384;2023-03-23T07:18:05;94624.63;;;22.20;34.40
56052;BME280;41919;42.648;23.384;2023-03-23T07:20:30;94665.16;;;22.96;33.11
56052;BME280;41919;42.648;23.384;2023-03-23T07:22:56;94666.72;;;23.90;32.05
56052;BME280;41919;42.648;23.384;2023-03-23T07:25:22;94667.81;;;24.08;31.66
56052;BME280;41919;42.648;23.384;2023-03-23T07:27:47;94656.31;;;24.89;30.68
56052;BME280;41919;42.648;23.384;2023-03-23T07:30:13;94598.34;;;25.50;29.57
56052;BME280;41919;42.648;23.384;2023-03-23T07:32:40;94656.09;;;26.84;27.99
56052;BME280;41919;42.648;23.384;2023-03-23T07:35:07;94633.03;;;25.82;28.74
56052;BME280;41919;42.648;23.384;2023-03-23T07:37:32;94648.81;;;26.26;28.36
56052;BME280;41919;42.648;23.384;2023-03-23T07:39:58;94653.41;;;25.97;28.87
56052;BME280;41919;42.648;23.384;2023-03-23T07:42:23;94671.38;;;26.61;27.45
56052;BME280;41919;42.648;23.384;2023-03-23T07:44:49;94670.13;;;24.77;30.06
56052;BME280;41919;42.648;23.384;2023-03-23T07:47:14;94659.50;;;24.72;30.25
56052;BME280;41919;42.648;23.384;2023-03-23T07:49:40;94678.63;;;25.63;29.33
56052;BME280;41919;42.648;23.384;2023-03-23T07:52:06;94665.59;;;26.04;28.81
56052;BME280;41919;42.648;23.384;2023-03-23T07:54:31;94662.75;;;26.36;27.61
56052;BME280;41919;42.648;23.384;2023-03-23T07:56:57;94613.50;;;26.46;26.96
56052;BME280;41919;42.648;23.384;2023-03-23T07:59:22;94612.31;;;26.66;27.23
56052;BME280;41919;42.648;23.384;2023-03-23T08:01:48;94675.72;;;26.07;28.80
56052;BME280;41919;42.648;23.384;2023-03-23T08:04:13;94614.69;;;25.34;29.04
56052;BME280;41919;42.648;23.384;2023-03-23T08:06:40;94671.13;;;26.07;28.22
56052;BME280;41919;42.648;23.384;2023-03-23T08:09:07;94656.66;;;26.72;27.08
56052;BME280;41919;42.648;23.384;2023-03-23T08:11:38;94630.56;;;26.64;27.66
56052;BME280;41919;42.648;23.384;2023-03-23T08:14:04;94658.09;;;24.60;30.08
56052;BME280;41919;42.648;23.384;2023-03-23T08:16:31;94677.69;;;25.08;29.98
56052;BME280;41919;42.648;23.384;2023-03-23T08:18:56;94674.28;;;25.81;28.54
56052;BME280;41919;42.648;23.384;2023-03-23T08:21:22;94616.22;;;25.54;28.31
56052;BME280;41919;42.648;23.384;2023-03-23T08:23:47;94683.03;;;26.15;28.34
56052;BME280;41919;42.648;23.384;2023-03-23T08:26:12;94677.06;;;26.32;26.97
56052;BME280;41919;42.648;23.384;2023-03-23T08:28:40;94612.91;;;25.57;27.47
56052;BME280;41919;42.648;23.384;2023-03-23T08:31:09;94623.00;;;25.47;27.49
56052;BME280;41919;42.648;23.384;2023-03-23T08:33:36;94612.78;;;24.31;28.75
56052;BME280;41919;42.648;23.384;2023-03-23T08:36:02;94636.44;;;23.52;30.16
56052;BME280;41919;42.648;23.384;2023-03-23T08:38:28;94624.91;;;22.19;32.03
56052;BME280;41919;42.648;23.384;2023-03-23T08:40:59;94637.53;;;22.47;31.17
56052;BME280;41919;42.648;23.384;2023-03-23T08:43:25;94683.19;;;22.70;31.97
56052;BME280;41919;42.648;23.384;2023-03-23T08:45:50;94669.69;;;22.56;30.89
56052;BME280;41919;42.648;23.384;2023-03-23T08:48:16;94615.34;;;22.12;31.02
56052;BME280;41919;42.648;23.384;2023-03-23T08:50:43;94677.31;;;21.17;31.65
56052;BME280;41919;42.648;23.384;2023-03-23T08:53:09;94670.13;;;20.71;32.04
56052;BME280;41919;42.648;23.384;2023-03-23T08:55:34;94646.63;;;20.12;32.99
56052;BME280;41919;42.648;23.384;2023-03-23T08:58:00;94675.72;;;20.80;33.11
56052;BME280;41919;42.648;23.384;2023-03-23T09:00:26;94616.22;;;20.91;31.55
56052;BME280;41919;42.648;23.384;2023-03-23T09:02:54;94670.09;;;21.59;30.98
56052;BME280;41919;42.648;23.384;2023-03-23T09:05:23;94614.56;;;19.50;31.09
56052;BME280;41919;42.648;23.384;2023-03-23T09:07:53;94615.44;;;18.54;33.87
56052;BME280;41919;42.648;23.384;2023-03-23T09:10:20;94626.91;;;18.92;33.60
56052;BME280;41919;42.648;23.384;2023-03-23T09:12:46;94604.63;;;19.83;32.22
56052;BME280;41919;42.648;23.384;2023-03-23T09:15:14;94673.03;;;21.11;30.97
56052;BME280;41919;42.648;23.384;2023-03-23T09:17:42;94611.16;;;20.95;31.64
56052;BME280;41919;42.648;23.384;2023-03-23T09:20:09;94688.06;;;19.70;34.29
56052;BME280;41919;42.648;23.384;2023-03-23T09:22:39;94610.75;;;18.61;33.88
56052;BME280;41919;42.648;23.384;2023-03-23T09:25:10;94671.19;;;18.42;34.30
56052;BME280;41919;42.648;23.384;2023-03-23T09:27:36;94625.88;;;17.23;37.62
56052;BME280;41919;42.648;23.384;2023-03-23T09:30:09;94661.63;;;16.63;38.41
56052;BME280;41919;42.648;23.384;2023-03-23T09:32:36;94664.38;;;16.39;39.91
56052;BME280;41919;42.648;23.384;2023-03-23T09:35:02;94670.44;;;17.19;39.13
56052;BME280;41919;42.648;23.384;2023-03-23T09:37:29;94614.91;;;17.53;37.15
56052;BME280;41919;42.648;23.384;2023-03-23T09:39:55;94667.75;;;18.19;37.58
56052;BME280;41919;42.648;23.384;2023-03-23T09:45:06;94674.16;;;18.78;36.13
56052;BME280;41919;42.648;23.384;2023-03-23T09:47:41;94619.53;;;18.99;35.42
56052;BME280;41919;42.648;23.384;2023-03-23T09:50:09;94667.66;;;19.71;34.02
56052;BME280;41919;42.648;23.384;2023-03-23T09:53:02;94658.28;;;20.01;34.00
56052;BME280;41919;42.648;23.384;2023-03-23T09:55:30;94578.16;;;18.55;34.63
56052;BME280;41919;42.648;23.384;2023-03-23T09:58:15;94659.72;;;19.28;33.68
56052;BME280;41919;42.648;23.384;2023-03-23T10:03:32;94582.31;;;16.87;36.70
56052;BME280;41919;42.648;23.384;2023-03-23T10:05:59;94628.72;;;16.99;37.80
56052;BME280;41919;42.648;23.384;2023-03-23T10:08:30;94657.84;;;16.88;39.63
56052;BME280;41919;42.648;23.384;2023-03-23T10:16:29;94623.38;;;17.55;36.95
56052;BME280;41919;42.648;23.384;2023-03-23T10:21:23;94583.59;;;17.01;37.17
56052;BME280;41919;42.648;23.384;2023-03-23T10:26:38;94658.13;;;16.74;38.90
56052;BME280;41919;42.648;23.384;2023-03-23T10:31:37;94623.06;;;15.99;39.14
56052;BME280;41919;42.648;23.384;2023-03-23T10:34:10;94645.19;;;15.98;40.27
56052;BME280;41919;42.648;23.384;2023-03-23T10:36:50;94569.31;;;15.31;41.71
56052;BME280;41919;42.648;23.384;2023-03-23T10:39:20;94583.56;;;15.47;41.27
56052;BME280;41919;42.648;23.384;2023-03-23T10:41:46;94529.88;;;15.07;40.64
56052;BME280;41919;42.648;23.384;2023-03-23T10:44:18;94547.72;;;14.82;42.11
56052;BME280;41919;42.648;23.384;2023-03-23T10:46:51;94643.84;;;15.20;42.99
56052;BME280;41919;42.648;23.384;2023-03-23T10:49:27;94470.91;;;14.32;42.93
56052;BME280;41919;42.648;23.384;2023-03-23T10:52:01;94599.19;;;15.25;42.47
56052;BME280;41919;42.648;23.384;2023-03-23T10:54:38;94621.56;;;15.51;41.89
56052;BME280;41919;42.648;23.384;2023-03-23T10:57:33;94636.22;;;15.71;40.78
56052;BME280;41919;42.648;23.384;2023-03-23T11:05:25;94596.97;;;15.45;40.48
56052;BME280;41919;42.648;23.384;2023-03-23T11:07:55;94556.97;;;15.20;40.64
56052;BME280;41919;42.648;23.384;2023-03-23T11:10:22;94595.16;;;15.22;40.77
56052;BME280;41919;42.648;23.384;2023-03-23T11:12:49;94626.19;;;15.20;42.53
56052;BME280;41919;42.648;23.384;2023-03-23T11:15:28;94629.59;;;15.56;42.49
56052;BME280;41919;42.648;23.384;2023-03-23T11:18:02;94622.47;;;15.80;41.79
56052;BME280;41919;42.648;23.384;2023-03-23T11:20:34;94557.44;;;15.57;42.84
56052;BME280;41919;42.648;23.384;2023-03-23T11:23:01;94578.25;;;15.59;43.52
56052;BME280;41919;42.648;23.384;2023-03-23T11:25:32;94614.00;;;15.78;42.32
56052;BME280;41919;42.648;23.384;2023-03-23T11:27:59;94534.03;;;15.61;42.03
56052;BME280;41919;42.648;23.384;2023-03-23T11:30:27;94542.22;;;15.88;41.06
56052;BME280;41919;42.648;23.384;2023-03-23T11:32:59;94576.88;;;16.42;40.51
56052;BME280;41919;42.648;23.384;2023-03-23T11:35:27;94586.13;;;16.45;40.12
56052;BME280;41919;42.648;23.384;2023-03-23T11:37:58;94598.53;;;15.99;41.05
56052;BME280;41919;42.648;23.384;2023-03-23T11:40:30;94581.75;;;15.88;41.27
56052;BME280;41919;42.648;23.384;2023-03-23T11:43:07;94587.81;;;15.48;42.03
56052;BME280;41919;42.648;23.384;2023-03-23T11:45:45;94590.75;;;15.11;42.12
56052;BME280;41919;42.648;23.384;2023-03-23T11:53:48;94589.59;;;14.83;43.18
56052;BME280;41919;42.648;23.384;2023-03-23T11:58:47;94525.19;;;14.86;42.61
56052;BME280;41919;42.648;23.384;2023-03-23T12:01:24;94586.09;;;15.54;41.63
56052;BME280;41919;42.648;23.384;2023-03-23T12:12:59;94569.78;;;15.97;41.68
56052;BME280;41919;42.648;23.384;2023-03-23T12:23:11;94557.72;;;15.73;42.33
56052;BME280;41919;42.648;23.384;2023-03-23T12:25:56;94567.06;;;15.92;41.66
56052;BME280;41919;42.648;23.384;2023-03-23T12:34:22;94558.16;;;16.27;40.89
56052;BME280;41919;42.648;23.384;2023-03-23T12:40:05;94560.25;;;16.25;40.47
56052;BME280;41919;42.648;23.384;2023-03-23T12:42:53;94555.63;;;16.32;40.26
56052;BME280;41919;42.648;23.384;2023-03-23T12:48:16;94557.34;;;16.10;40.30
56052;BME280;41919;42.648;23.384;2023-03-23T12:50:47;94556.19;;;15.88;41.96
56052;BME280;41919;42.648;23.384;2023-03-23T12:53:16;94546.00;;;16.09;41.44
56052;BME280;41919;42.648;23.384;2023-03-23T12:55:45;94541.88;;;16.30;40.94
56052;BME280;41919;42.648;23.384;2023-03-23T12:58:30;94542.03;;;16.40;39.86
56052;BME280;41919;42.648;23.384;2023-03-23T13:01:05;94481.44;;;15.95;40.58
56052;BME280;41919;42.648;23.384;2023-03-23T13:03:49;94477.94;;;15.89;40.94
56052;BME280;41919;42.648;23.384;2023-03-23T13:06:35;94536.91;;;16.51;40.71
56052;BME280;41919;42.648;23.384;2023-03-23T13:11:42;94478.28;;;16.10;41.61
56052;BME280;41919;42.648;23.384;2023-03-23T13:22:39;94530.94;;;15.76;42.18
56052;BME280;41919;42.648;23.384;2023-03-23T13:25:14;94495.91;;;15.63;42.27
56052;BME280;41919;42.648;23.384;2023-03-23T13:27:40;94512.66;;;15.57;42.92
56052;BME280;41919;42.648;23.384;2023-03-23T13:30:19;94500.75;;;15.83;41.71
56052;BME280;41919;42.648;23.384;2023-03-23T13:32:50;94475.03;;;15.74;42.16
56052;BME280;41919;42.648;23.384;2023-03-23T13:35:17;94510.88;;;16.03;41.41
56052;BME280;41919;42.648;23.384;2023-03-23T13:37:48;94462.19;;;15.77;41.42
56052;BME280;41919;42.648;23.384;2023-03-23T13:40:28;94529.88;;;16.05;41.84
56052;BME280;41919;42.648;23.384;2023-03-23T13:42:58;94465.97;;;15.69;41.54
56052;BME280;41919;42.648;23.384;2023-03-23T13:45:44;94515.00;;;15.82;42.05
56052;BME280;41919;42.648;23.384;2023-03-23T13:50:49;94510.44;;;15.95;42.04
56052;BME280;41919;42.648;23.384;2023-03-23T13:53:23;94488.66;;;15.99;41.76
56052;BME280;41919;42.648;23.384;2023-03-23T13:56:02;94441.91;;;15.49;41.69
56052;BME280;41919;42.648;23.384;2023-03-23T13:58:28;94456.69;;;15.50;42.58
56052;BME280;41919;42.648;23.384;2023-03-23T14:01:31;94508.69;;;15.72;42.95
56052;BME280;41919;42.648;23.384;2023-03-23T14:03:59;94451.94;;;15.35;42.65
56052;BME280;41919;42.648;23.384;2023-03-23T14:06:26;94440.81;;;15.16;42.63
56052;BME280;41919;42.648;23.384;2023-03-23T14:09:22;94501.38;;;15.45;43.49
56052;BME280;41919;42.648;23.384;2023-03-23T14:11:55;94418.25;;;14.80;42.65
56052;BME280;41919;42.648;23.384;2023-03-23T14:14:32;94469.81;;;14.93;43.63
56052;BME280;41919;42.648;23.384;2023-03-23T14:17:08;94431.97;;;14.82;43.86
56052;BME280;41919;42.648;23.384;2023-03-23T14:19:38;94490.31;;;15.31;44.28
56052;BME280;41919;42.648;23.384;2023-03-23T14:22:17;94427.13;;;14.62;45.04
56052;BME280;41919;42.648;23.384;2023-03-23T14:24:44;94493.56;;;15.21;46.76
56052;BME280;41919;42.648;23.384;2023-03-23T14:27:21;94472.88;;;15.13;45.25
56052;BME280;41919;42.648;23.384;2023-03-23T14:29:58;94490.53;;;15.29;45.15
56052;BME280;41919;42.648;23.384;2023-03-23T14:32:24;94418.47;;;14.90;44.39